sensor_id;sensor_type;location;lat;lon;timestamp;P1;durP1;ratioP1;P2;durP2;ratioP2
25922;SDS011;13725;51.170;4.442;2023-05-31T00:00:22;5.80;;;4.15;;
25922;SDS011;13725;51.170;4.442;2023-05-31T00:02:48;8.55;;;4.50;;
25922;SDS011;13725;51.170;4.442;2023-05-31T00:05:14;5.13;;;4.05;;
25922;SDS011;13725;51.170;4.442;2023-05-31T00:07:40;8.43;;;4.47;;
25922;SDS011;13725;51.170;4.442;2023-05-31T00:10:06;7.72;;;4.47;;
25922;SDS011;13725;51.170;4.442;2023-05-31T00:12:32;7.10;;;4.63;;
25922;SDS011;13725;51.170;4.442;2023-05-31T00:14:57;6.95;;;4.72;;
25922;SDS011;13725;51.170;4.442;2023-05-31T00:17:24;6.82;;;4.75;;
25922;SDS011;13725;51.170;4.442;2023-05-31T00:19:50;7.78;;;4.72;;
25922;SDS011;13725;51.170;4.442;2023-05-31T00:22:15;5.90;;;4.65;;
25922;SDS011;13725;51.170;4.442;2023-05-31T00:24:42;5.43;;;4.57;;
25922;SDS011;13725;51.170;4.442;2023-05-31T00:27:09;5.32;;;4.10;;
25922;SDS011;13725;51.170;4.442;2023-05-31T00:29:34;8.15;;;4.78;;
25922;SDS011;13725;51.170;4.442;2023-05-31T00:32:00;6.65;;;5.45;;
25922;SDS011;13725;51.170;4.442;2023-05-31T00:34:26;5.80;;;4.65;;
25922;SDS011;13725;51.170;4.442;2023-05-31T00:36:52;6.55;;;4.93;;
25922;SDS011;13725;51.170;4.442;2023-05-31T00:39:18;7.38;;;4.70;;
25922;SDS011;13725;51.170;4.442;2023-05-31T00:41:44;9.75;;;5.35;;
25922;SDS011;13725;51.170;4.442;2023-05-31T00:44:09;7.93;;;4.85;;
25922;SDS011;13725;51.170;4.442;2023-05-31T00:46:37;5.90;;;5.03;;
25922;SDS011;13725;51.170;4.442;2023-05-31T00:49:04;8.43;;;5.00;;
25922;SDS011;13725;51.170;4.442;2023-05-31T00:51:30;6.55;;;4.53;;
25922;SDS011;13725;51.170;4.442;2023-05-31T00:53:57;8.90;;;5.80;;
25922;SDS011;13725;51.170;4.442;2023-05-31T00:56:24;6.45;;;4.93;;
25922;SDS011;13725;51.170;4.442;2023-05-31T00:58:50;6.35;;;5.45;;
25922;SDS011;13725;51.170;4.442;2023-05-31T01:01:20;8.48;;;5.15;;
25922;SDS011;13725;51.170;4.442;2023-05-31T01:03:46;10.98;;;5.57;;
25922;SDS011;13725;51.170;4.442;2023-05-31T01:06:12;7.88;;;5.18;;
25922;SDS011;13725;51.170;4.442;2023-05-31T01:08:38;7.40;;;5.35;;
25922;SDS011;13725;51.170;4.442;2023-05-31T01:17:21;7.05;;;5.38;;
25922;SDS011;13725;51.170;4.442;2023-05-31T01:20:06;7.00;;;5.53;;
25922;SDS011;13725;51.170;4.442;2023-05-31T01:28:20;9.30;;;5.18;;
25922;SDS011;13725;51.170;4.442;2023-05-31T01:30:48;11.23;;;5.15;;
25922;SDS011;13725;51.170;4.442;2023-05-31T01:33:16;7.53;;;5.35;;
25922;SDS011;13725;51.170;4.442;2023-05-31T01:35:43;8.40;;;5.55;;
25922;SDS011;13725;51.170;4.442;2023-05-31T01:38:12;7.43;;;5.13;;
25922;SDS011;13725;51.170;4.442;2023-05-31T01:40:38;8.95;;;5.97;;
25922;SDS011;13725;51.170;4.442;2023-05-31T01:43:06;10.38;;;5.70;;
25922;SDS011;13725;51.170;4.442;2023-05-31T01:45:32;8.63;;;5.47;;
25922;SDS011;13725;51.170;4.442;2023-05-31T01:48:06;7.60;;;5.70;;
25922;SDS011;13725;51.170;4.442;2023-05-31T01:50:34;9.05;;;6.30;;
25922;SDS011;13725;51.170;4.442;2023-05-31T01:53:01;7.90;;;5.30;;
25922;SDS011;13725;51.170;4.442;2023-05-31T01:55:29;9.57;;;5.70;;
25922;SDS011;13725;51.170;4.442;2023-05-31T01:57:55;7.18;;;5.72;;
25922;SDS011;13725;51.170;4.442;2023-05-31T02:00:23;7.15;;;5.68;;
25922;SDS011;13725;51.170;4.442;2023-05-31T02:02:51;8.90;;;6.40;;
25922;SDS011;13725;51.170;4.442;2023-05-31T02:05:17;7.35;;;5.57;;
25922;SDS011;13725;51.170;4.442;2023-05-31T02:07:44;7.68;;;5.82;;
25922;SDS011;13725;51.170;4.442;2023-05-31T02:10:11;10.40;;;5.93;;
25922;SDS011;13725;51.170;4.442;2023-05-31T02:12:38;8.85;;;6.07;;
25922;SDS011;13725;51.170;4.442;2023-05-31T02:15:04;8.05;;;5.78;;
25922;SDS011;13725;51.170;4.442;2023-05-31T02:17:37;7.78;;;6.43;;
25922;SDS011;13725;51.170;4.442;2023-05-31T02:20:08;11.55;;;6.10;;
25922;SDS011;13725;51.170;4.442;2023-05-31T02:22:41;8.88;;;5.97;;
25922;SDS011;13725;51.170;4.442;2023-05-31T02:25:11;6.88;;;5.70;;
25922;SDS011;13725;51.170;4.442;2023-05-31T02:27:39;8.82;;;5.93;;
25922;SDS011;13725;51.170;4.442;2023-05-31T02:30:08;7.60;;;6.45;;
25922;SDS011;13725;51.170;4.442;2023-05-31T02:32:35;8.73;;;6.07;;
25922;SDS011;13725;51.170;4.442;2023-05-31T02:35:06;9.25;;;5.80;;
25922;SDS011;13725;51.170;4.442;2023-05-31T02:37:34;12.27;;;6.57;;
25922;SDS011;13725;51.170;4.442;2023-05-31T02:40:01;7.70;;;6.20;;
25922;SDS011;13725;51.170;4.442;2023-05-31T02:42:43;10.32;;;6.28;;
25922;SDS011;13725;51.170;4.442;2023-05-31T02:45:09;11.38;;;6.60;;
25922;SDS011;13725;51.170;4.442;2023-05-31T02:47:36;8.77;;;6.38;;
25922;SDS011;13725;51.170;4.442;2023-05-31T02:50:07;10.40;;;5.95;;
25922;SDS011;13725;51.170;4.442;2023-05-31T02:52:39;11.25;;;6.75;;
25922;SDS011;13725;51.170;4.442;2023-05-31T02:55:21;8.73;;;6.78;;
25922;SDS011;13725;51.170;4.442;2023-05-31T02:58:07;8.75;;;6.95;;
25922;SDS011;13725;51.170;4.442;2023-05-31T03:00:37;9.15;;;6.65;;
25922;SDS011;13725;51.170;4.442;2023-05-31T03:03:03;11.70;;;6.68;;
25922;SDS011;13725;51.170;4.442;2023-05-31T03:05:43;9.52;;;6.25;;
25922;SDS011;13725;51.170;4.442;2023-05-31T03:08:09;9.07;;;6.97;;
25922;SDS011;13725;51.170;4.442;2023-05-31T03:10:34;8.18;;;6.65;;
25922;SDS011;13725;51.170;4.442;2023-05-31T03:13:00;10.65;;;6.28;;
25922;SDS011;13725;51.170;4.442;2023-05-31T03:15:26;9.80;;;6.53;;
25922;SDS011;13725;51.170;4.442;2023-05-31T03:17:52;10.32;;;7.47;;
25922;SDS011;13725;51.170;4.442;2023-05-31T03:20:18;9.02;;;6.35;;
25922;SDS011;13725;51.170;4.442;2023-05-31T03:22:44;16.92;;;6.88;;
25922;SDS011;13725;51.170;4.442;2023-05-31T03:25:10;9.25;;;7.00;;
25922;SDS011;13725;51.170;4.442;2023-05-31T03:27:37;9.77;;;7.13;;
25922;SDS011;13725;51.170;4.442;2023-05-31T03:30:03;12.18;;;7.82;;
25922;SDS011;13725;51.170;4.442;2023-05-31T03:32:33;10.50;;;7.50;;
25922;SDS011;13725;51.170;4.442;2023-05-31T03:34:58;16.33;;;7.43;;
25922;SDS011;13725;51.170;4.442;2023-05-31T03:37:25;10.60;;;7.32;;
25922;SDS011;13725;51.170;4.442;2023-05-31T03:40:08;13.07;;;7.93;;
25922;SDS011;13725;51.170;4.442;2023-05-31T03:42:34;10.27;;;6.95;;
25922;SDS011;13725;51.170;4.442;2023-05-31T03:45:01;10.65;;;7.45;;
25922;SDS011;13725;51.170;4.442;2023-05-31T03:47:28;11.23;;;7.55;;
25922;SDS011;13725;51.170;4.442;2023-05-31T03:49:55;10.35;;;7.53;;
25922;SDS011;13725;51.170;4.442;2023-05-31T03:52:21;14.68;;;8.20;;
25922;SDS011;13725;51.170;4.442;2023-05-31T03:54:46;11.82;;;8.02;;
25922;SDS011;13725;51.170;4.442;2023-05-31T03:57:13;13.38;;;7.65;;
25922;SDS011;13725;51.170;4.442;2023-05-31T03:59:40;12.48;;;7.47;;
25922;SDS011;13725;51.170;4.442;2023-05-31T04:02:06;12.38;;;7.75;;
25922;SDS011;13725;51.170;4.442;2023-05-31T04:04:31;10.18;;;7.63;;
25922;SDS011;13725;51.170;4.442;2023-05-31T04:06:57;11.60;;;7.43;;
25922;SDS011;13725;51.170;4.442;2023-05-31T04:09:23;11.27;;;7.82;;
25922;SDS011;13725;51.170;4.442;2023-05-31T04:11:49;14.52;;;7.57;;
25922;SDS011;13725;51.170;4.442;2023-05-31T04:14:15;17.08;;;8.32;;
25922;SDS011;13725;51.170;4.442;2023-05-31T04:16:42;13.60;;;8.77;;
25922;SDS011;13725;51.170;4.442;2023-05-31T04:19:08;14.02;;;8.13;;
25922;SDS011;13725;51.170;4.442;2023-05-31T04:21:34;11.95;;;7.90;;
25922;SDS011;13725;51.170;4.442;2023-05-31T04:24:00;16.20;;;8.73;;
25922;SDS011;13725;51.170;4.442;2023-05-31T04:26:26;13.45;;;7.88;;
25922;SDS011;13725;51.170;4.442;2023-05-31T04:28:54;14.50;;;8.05;;
25922;SDS011;13725;51.170;4.442;2023-05-31T04:31:21;11.75;;;8.25;;
25922;SDS011;13725;51.170;4.442;2023-05-31T04:33:53;12.30;;;7.72;;
25922;SDS011;13725;51.170;4.442;2023-05-31T04:36:22;15.57;;;8.52;;
25922;SDS011;13725;51.170;4.442;2023-05-31T04:38:52;14.00;;;8.35;;
25922;SDS011;13725;51.170;4.442;2023-05-31T04:41:24;12.10;;;8.30;;
25922;SDS011;13725;51.170;4.442;2023-05-31T04:43:52;13.23;;;8.43;;
25922;SDS011;13725;51.170;4.442;2023-05-31T04:46:19;14.65;;;8.00;;
25922;SDS011;13725;51.170;4.442;2023-05-31T04:48:49;13.15;;;8.32;;
25922;SDS011;13725;51.170;4.442;2023-05-31T04:51:16;15.65;;;8.90;;
25922;SDS011;13725;51.170;4.442;2023-05-31T04:53:43;13.35;;;9.15;;
25922;SDS011;13725;51.170;4.442;2023-05-31T04:56:10;14.20;;;9.05;;
25922;SDS011;13725;51.170;4.442;2023-05-31T04:58:38;15.73;;;8.93;;
25922;SDS011;13725;51.170;4.442;2023-05-31T05:01:04;14.85;;;8.20;;
25922;SDS011;13725;51.170;4.442;2023-05-31T05:03:50;12.40;;;8.20;;
25922;SDS011;13725;51.170;4.442;2023-05-31T05:06:17;15.30;;;9.13;;
25922;SDS011;13725;51.170;4.442;2023-05-31T05:08:47;20.20;;;9.50;;
25922;SDS011;13725;51.170;4.442;2023-05-31T05:11:14;14.55;;;8.35;;
25922;SDS011;13725;51.170;4.442;2023-05-31T05:13:40;13.32;;;8.23;;
25922;SDS011;13725;51.170;4.442;2023-05-31T05:16:07;17.10;;;9.23;;
25922;SDS011;13725;51.170;4.442;2023-05-31T05:18:33;18.10;;;9.23;;
25922;SDS011;13725;51.170;4.442;2023-05-31T05:20:59;17.73;;;9.57;;
25922;SDS011;13725;51.170;4.442;2023-05-31T05:23:27;15.60;;;9.27;;
25922;SDS011;13725;51.170;4.442;2023-05-31T05:25:56;16.85;;;9.65;;
25922;SDS011;13725;51.170;4.442;2023-05-31T05:28:24;16.88;;;9.20;;
25922;SDS011;13725;51.170;4.442;2023-05-31T05:30:51;15.68;;;9.73;;
25922;SDS011;13725;51.170;4.442;2023-05-31T05:33:18;13.98;;;9.30;;
25922;SDS011;13725;51.170;4.442;2023-05-31T05:35:44;17.35;;;9.25;;
25922;SDS011;13725;51.170;4.442;2023-05-31T05:38:10;16.60;;;10.07;;
25922;SDS011;13725;51.170;4.442;2023-05-31T05:40:36;14.30;;;9.93;;
25922;SDS011;13725;51.170;4.442;2023-05-31T05:43:02;17.50;;;10.35;;
25922;SDS011;13725;51.170;4.442;2023-05-31T05:45:28;14.85;;;9.50;;
25922;SDS011;13725;51.170;4.442;2023-05-31T05:47:54;14.80;;;9.45;;
25922;SDS011;13725;51.170;4.442;2023-05-31T05:50:22;17.20;;;9.68;;
25922;SDS011;13725;51.170;4.442;2023-05-31T05:52:48;16.65;;;9.35;;
25922;SDS011;13725;51.170;4.442;2023-05-31T05:55:14;16.33;;;10.20;;
25922;SDS011;13725;51.170;4.442;2023-05-31T05:57:40;15.38;;;10.00;;
25922;SDS011;13725;51.170;4.442;2023-05-31T06:00:38;17.67;;;9.48;;
25922;SDS011;13725;51.170;4.442;2023-05-31T06:03:06;14.98;;;9.60;;
25922;SDS011;13725;51.170;4.442;2023-05-31T06:05:33;17.75;;;9.80;;
25922;SDS011;13725;51.170;4.442;2023-05-31T06:07:59;17.23;;;9.98;;
25922;SDS011;13725;51.170;4.442;2023-05-31T06:10:26;19.45;;;11.32;;
25922;SDS011;13725;51.170;4.442;2023-05-31T06:12:52;16.63;;;10.10;;
25922;SDS011;13725;51.170;4.442;2023-05-31T06:15:20;17.85;;;9.02;;
25922;SDS011;13725;51.170;4.442;2023-05-31T06:17:46;17.80;;;9.05;;
25922;SDS011;13725;51.170;4.442;2023-05-31T06:20:15;15.55;;;8.48;;
25922;SDS011;13725;51.170;4.442;2023-05-31T06:22:42;15.98;;;8.45;;
25922;SDS011;13725;51.170;4.442;2023-05-31T06:25:08;17.17;;;8.73;;
25922;SDS011;13725;51.170;4.442;2023-05-31T06:27:34;13.05;;;7.90;;
25922;SDS011;13725;51.170;4.442;2023-05-31T06:30:01;14.00;;;7.95;;
25922;SDS011;13725;51.170;4.442;2023-05-31T06:32:42;14.07;;;7.47;;
25922;SDS011;13725;51.170;4.442;2023-05-31T06:35:07;22.92;;;9.02;;
25922;SDS011;13725;51.170;4.442;2023-05-31T06:37:33;11.90;;;8.25;;
25922;SDS011;13725;51.170;4.442;2023-05-31T06:39:59;13.98;;;8.10;;
25922;SDS011;13725;51.170;4.442;2023-05-31T06:42:25;13.05;;;7.78;;
25922;SDS011;13725;51.170;4.442;2023-05-31T06:44:54;11.15;;;7.50;;
25922;SDS011;13725;51.170;4.442;2023-05-31T06:47:42;15.15;;;8.10;;
25922;SDS011;13725;51.170;4.442;2023-05-31T06:50:13;12.30;;;7.63;;
25922;SDS011;13725;51.170;4.442;2023-05-31T06:52:59;13.77;;;8.00;;
25922;SDS011;13725;51.170;4.442;2023-05-31T06:55:29;10.68;;;7.80;;
25922;SDS011;13725;51.170;4.442;2023-05-31T06:57:56;9.63;;;7.22;;
25922;SDS011;13725;51.170;4.442;2023-05-31T07:00:22;13.65;;;8.88;;
25922;SDS011;13725;51.170;4.442;2023-05-31T07:02:47;11.68;;;7.65;;
25922;SDS011;13725;51.170;4.442;2023-05-31T07:05:13;14.68;;;7.90;;
25922;SDS011;13725;51.170;4.442;2023-05-31T07:07:39;11.77;;;7.65;;
25922;SDS011;13725;51.170;4.442;2023-05-31T07:10:05;14.00;;;7.95;;
25922;SDS011;13725;51.170;4.442;2023-05-31T07:12:32;11.00;;;7.40;;
25922;SDS011;13725;51.170;4.442;2023-05-31T07:14:57;14.95;;;8.13;;
25922;SDS011;13725;51.170;4.442;2023-05-31T07:17:23;13.40;;;7.75;;
25922;SDS011;13725;51.170;4.442;2023-05-31T07:19:49;11.70;;;7.40;;
25922;SDS011;13725;51.170;4.442;2023-05-31T07:22:15;10.38;;;7.88;;
25922;SDS011;13725;51.170;4.442;2023-05-31T07:24:42;11.43;;;8.00;;
25922;SDS011;13725;51.170;4.442;2023-05-31T07:27:10;10.15;;;8.00;;
25922;SDS011;13725;51.170;4.442;2023-05-31T07:29:37;10.88;;;7.00;;
25922;SDS011;13725;51.170;4.442;2023-05-31T07:32:03;12.68;;;7.47;;
25922;SDS011;13725;51.170;4.442;2023-05-31T07:34:29;11.25;;;7.10;;
25922;SDS011;13725;51.170;4.442;2023-05-31T07:36:55;13.63;;;8.27;;
25922;SDS011;13725;51.170;4.442;2023-05-31T07:39:21;13.75;;;8.23;;
25922;SDS011;13725;51.170;4.442;2023-05-31T07:41:47;11.88;;;7.68;;
25922;SDS011;13725;51.170;4.442;2023-05-31T07:44:13;12.15;;;7.30;;
25922;SDS011;13725;51.170;4.442;2023-05-31T07:46:42;10.45;;;7.43;;
25922;SDS011;13725;51.170;4.442;2023-05-31T07:49:09;11.27;;;7.65;;
25922;SDS011;13725;51.170;4.442;2023-05-31T07:51:35;11.35;;;7.53;;
25922;SDS011;13725;51.170;4.442;2023-05-31T07:54:01;12.65;;;8.05;;
25922;SDS011;13725;51.170;4.442;2023-05-31T07:56:28;16.00;;;8.30;;
25922;SDS011;13725;51.170;4.442;2023-05-31T07:58:54;10.50;;;8.00;;
25922;SDS011;13725;51.170;4.442;2023-05-31T08:01:19;15.38;;;8.80;;
25922;SDS011;13725;51.170;4.442;2023-05-31T08:03:45;13.90;;;7.25;;
25922;SDS011;13725;51.170;4.442;2023-05-31T08:06:11;12.45;;;7.70;;
25922;SDS011;13725;51.170;4.442;2023-05-31T08:08:37;11.30;;;7.50;;
25922;SDS011;13725;51.170;4.442;2023-05-31T08:11:03;10.07;;;7.85;;
25922;SDS011;13725;51.170;4.442;2023-05-31T08:13:29;13.30;;;8.05;;
25922;SDS011;13725;51.170;4.442;2023-05-31T08:15:56;12.43;;;7.25;;
25922;SDS011;13725;51.170;4.442;2023-05-31T08:18:22;13.95;;;7.68;;
25922;SDS011;13725;51.170;4.442;2023-05-31T08:20:47;12.55;;;7.90;;
25922;SDS011;13725;51.170;4.442;2023-05-31T08:23:17;10.65;;;7.80;;
25922;SDS011;13725;51.170;4.442;2023-05-31T08:25:46;13.65;;;7.28;;
25922;SDS011;13725;51.170;4.442;2023-05-31T08:28:15;15.30;;;6.97;;
25922;SDS011;13725;51.170;4.442;2023-05-31T08:30:41;16.70;;;7.93;;
25922;SDS011;13725;51.170;4.442;2023-05-31T08:33:07;12.30;;;7.60;;
25922;SDS011;13725;51.170;4.442;2023-05-31T08:35:32;17.27;;;7.93;;
25922;SDS011;13725;51.170;4.442;2023-05-31T08:37:58;10.85;;;6.85;;
25922;SDS011;13725;51.170;4.442;2023-05-31T08:40:24;26.27;;;7.53;;
25922;SDS011;13725;51.170;4.442;2023-05-31T08:42:51;14.60;;;7.03;;
25922;SDS011;13725;51.170;4.442;2023-05-31T08:45:25;11.63;;;7.10;;
25922;SDS011;13725;51.170;4.442;2023-05-31T08:50:28;11.02;;;6.57;;
25922;SDS011;13725;51.170;4.442;2023-05-31T08:52:56;20.75;;;7.28;;
25922;SDS011;13725;51.170;4.442;2023-05-31T08:55:23;14.45;;;7.47;;
25922;SDS011;13725;51.170;4.442;2023-05-31T08:57:50;11.90;;;6.70;;
25922;SDS011;13725;51.170;4.442;2023-05-31T09:00:18;10.00;;;6.72;;
25922;SDS011;13725;51.170;4.442;2023-05-31T09:02:44;13.27;;;7.57;;
25922;SDS011;13725;51.170;4.442;2023-05-31T09:05:16;10.85;;;7.20;;
25922;SDS011;13725;51.170;4.442;2023-05-31T09:07:42;9.32;;;6.65;;
25922;SDS011;13725;51.170;4.442;2023-05-31T09:10:08;11.73;;;6.57;;
25922;SDS011;13725;51.170;4.442;2023-05-31T09:12:35;10.15;;;6.72;;
25922;SDS011;13725;51.170;4.442;2023-05-31T09:15:01;10.45;;;5.90;;
25922;SDS011;13725;51.170;4.442;2023-05-31T09:17:30;14.20;;;6.25;;
25922;SDS011;13725;51.170;4.442;2023-05-31T09:19:56;9.60;;;6.18;;
25922;SDS011;13725;51.170;4.442;2023-05-31T09:22:25;12.18;;;6.47;;
25922;SDS011;13725;51.170;4.442;2023-05-31T09:27:23;12.55;;;7.18;;
25922;SDS011;13725;51.170;4.442;2023-05-31T09:29:53;11.38;;;7.32;;
25922;SDS011;13725;51.170;4.442;2023-05-31T09:32:20;11.00;;;7.10;;
25922;SDS011;13725;51.170;4.442;2023-05-31T09:34:46;10.35;;;6.70;;
25922;SDS011;13725;51.170;4.442;2023-05-31T09:37:21;11.20;;;6.75;;
25922;SDS011;13725;51.170;4.442;2023-05-31T09:39:54;13.13;;;5.97;;
25922;SDS011;13725;51.170;4.442;2023-05-31T09:42:21;11.02;;;6.63;;
25922;SDS011;13725;51.170;4.442;2023-05-31T09:44:49;14.82;;;5.95;;
25922;SDS011;13725;51.170;4.442;2023-05-31T09:47:15;10.75;;;6.60;;
25922;SDS011;13725;51.170;4.442;2023-05-31T09:49:43;12.95;;;7.22;;
25922;SDS011;13725;51.170;4.442;2023-05-31T09:52:12;11.63;;;6.22;;
25922;SDS011;13725;51.170;4.442;2023-05-31T09:54:38;11.85;;;6.68;;
25922;SDS011;13725;51.170;4.442;2023-05-31T09:57:05;11.57;;;6.38;;
25922;SDS011;13725;51.170;4.442;2023-05-31T09:59:34;12.77;;;6.95;;
25922;SDS011;13725;51.170;4.442;2023-05-31T10:02:00;9.52;;;6.25;;
25922;SDS011;13725;51.170;4.442;2023-05-31T10:04:28;13.75;;;5.50;;
25922;SDS011;13725;51.170;4.442;2023-05-31T10:06:54;12.10;;;5.70;;
25922;SDS011;13725;51.170;4.442;2023-05-31T10:09:20;9.57;;;6.18;;
25922;SDS011;13725;51.170;4.442;2023-05-31T10:11:47;9.23;;;5.65;;
25922;SDS011;13725;51.170;4.442;2023-05-31T10:14:21;10.00;;;5.45;;
25922;SDS011;13725;51.170;4.442;2023-05-31T10:16:53;10.32;;;5.70;;
25922;SDS011;13725;51.170;4.442;2023-05-31T10:19:27;9.98;;;5.80;;
25922;SDS011;13725;51.170;4.442;2023-05-31T10:22:03;11.20;;;6.00;;
25922;SDS011;13725;51.170;4.442;2023-05-31T10:24:30;10.73;;;6.47;;
25922;SDS011;13725;51.170;4.442;2023-05-31T10:27:11;11.00;;;6.22;;
25922;SDS011;13725;51.170;4.442;2023-05-31T10:29:42;17.80;;;5.25;;
25922;SDS011;13725;51.170;4.442;2023-05-31T10:32:16;9.73;;;5.40;;
25922;SDS011;13725;51.170;4.442;2023-05-31T10:34:49;9.95;;;5.13;;
25922;SDS011;13725;51.170;4.442;2023-05-31T10:37:16;9.77;;;5.43;;
25922;SDS011;13725;51.170;4.442;2023-05-31T10:47:43;12.48;;;4.65;;
25922;SDS011;13725;51.170;4.442;2023-05-31T10:50:17;7.15;;;4.28;;
25922;SDS011;13725;51.170;4.442;2023-05-31T10:52:49;8.50;;;4.35;;
25922;SDS011;13725;51.170;4.442;2023-05-31T10:55:16;9.80;;;4.55;;
25922;SDS011;13725;51.170;4.442;2023-05-31T10:57:44;9.93;;;4.05;;
25922;SDS011;13725;51.170;4.442;2023-05-31T11:00:14;8.82;;;4.35;;
25922;SDS011;13725;51.170;4.442;2023-05-31T11:02:45;9.00;;;4.22;;
25922;SDS011;13725;51.170;4.442;2023-05-31T11:05:20;10.27;;;4.95;;
25922;SDS011;13725;51.170;4.442;2023-05-31T11:07:52;10.90;;;4.65;;
25922;SDS011;13725;51.170;4.442;2023-05-31T11:10:29;10.30;;;4.57;;
25922;SDS011;13725;51.170;4.442;2023-05-31T11:13:01;16.40;;;4.30;;
25922;SDS011;13725;51.170;4.442;2023-05-31T11:15:38;8.98;;;3.78;;
25922;SDS011;13725;51.170;4.442;2023-05-31T11:18:15;10.15;;;4.30;;
25922;SDS011;13725;51.170;4.442;2023-05-31T11:20:47;10.40;;;3.72;;
25922;SDS011;13725;51.170;4.442;2023-05-31T11:28:58;9.60;;;3.72;;
25922;SDS011;13725;51.170;4.442;2023-05-31T11:34:33;7.78;;;3.42;;
25922;SDS011;13725;51.170;4.442;2023-05-31T11:37:00;7.38;;;3.13;;
25922;SDS011;13725;51.170;4.442;2023-05-31T11:39:30;9.52;;;2.78;;
25922;SDS011;13725;51.170;4.442;2023-05-31T11:41:56;10.15;;;3.00;;
25922;SDS011;13725;51.170;4.442;2023-05-31T11:44:26;6.60;;;3.25;;
25922;SDS011;13725;51.170;4.442;2023-05-31T11:49:25;10.20;;;3.45;;
25922;SDS011;13725;51.170;4.442;2023-05-31T11:51:53;5.90;;;3.00;;
25922;SDS011;13725;51.170;4.442;2023-05-31T11:54:23;6.88;;;2.42;;
25922;SDS011;13725;51.170;4.442;2023-05-31T11:56:58;7.25;;;3.03;;
25922;SDS011;13725;51.170;4.442;2023-05-31T11:59:25;7.75;;;2.58;;
25922;SDS011;13725;51.170;4.442;2023-05-31T12:01:56;6.90;;;2.65;;
25922;SDS011;13725;51.170;4.442;2023-05-31T12:07:15;8.05;;;3.10;;
25922;SDS011;13725;51.170;4.442;2023-05-31T12:09:47;6.38;;;2.58;;
25922;SDS011;13725;51.170;4.442;2023-05-31T12:12:13;7.57;;;3.03;;
25922;SDS011;13725;51.170;4.442;2023-05-31T12:14:48;9.13;;;3.28;;
25922;SDS011;13725;51.170;4.442;2023-05-31T12:17:18;5.78;;;2.42;;
25922;SDS011;13725;51.170;4.442;2023-05-31T12:19:46;7.43;;;2.58;;
25922;SDS011;13725;51.170;4.442;2023-05-31T12:22:12;7.13;;;3.13;;
25922;SDS011;13725;51.170;4.442;2023-05-31T12:24:53;16.17;;;2.78;;
25922;SDS011;13725;51.170;4.442;2023-05-31T12:27:21;10.63;;;2.90;;
25922;SDS011;13725;51.170;4.442;2023-05-31T12:29:47;5.68;;;2.40;;
25922;SDS011;13725;51.170;4.442;2023-05-31T12:32:13;11.40;;;3.33;;
25922;SDS011;13725;51.170;4.442;2023-05-31T12:34:42;5.53;;;2.55;;
25922;SDS011;13725;51.170;4.442;2023-05-31T12:37:09;4.75;;;2.50;;
25922;SDS011;13725;51.170;4.442;2023-05-31T12:39:36;9.43;;;2.50;;
25922;SDS011;13725;51.170;4.442;2023-05-31T12:42:05;8.68;;;2.88;;
25922;SDS011;13725;51.170;4.442;2023-05-31T12:44:31;8.00;;;2.80;;
25922;SDS011;13725;51.170;4.442;2023-05-31T12:47:06;7.05;;;2.65;;
25922;SDS011;13725;51.170;4.442;2023-05-31T12:49:33;6.72;;;3.10;;
25922;SDS011;13725;51.170;4.442;2023-05-31T12:52:05;8.20;;;2.65;;
25922;SDS011;13725;51.170;4.442;2023-05-31T12:54:34;6.63;;;2.85;;
25922;SDS011;13725;51.170;4.442;2023-05-31T12:57:04;5.50;;;2.90;;
25922;SDS011;13725;51.170;4.442;2023-05-31T12:59:31;9.15;;;2.67;;
25922;SDS011;13725;51.170;4.442;2023-05-31T13:01:58;9.10;;;2.83;;
25922;SDS011;13725;51.170;4.442;2023-05-31T13:04:24;8.27;;;2.80;;
25922;SDS011;13725;51.170;4.442;2023-05-31T13:06:52;7.63;;;2.78;;
25922;SDS011;13725;51.170;4.442;2023-05-31T13:09:18;9.10;;;3.25;;
25922;SDS011;13725;51.170;4.442;2023-05-31T13:11:45;9.38;;;3.13;;
25922;SDS011;13725;51.170;4.442;2023-05-31T13:14:14;8.65;;;2.88;;
25922;SDS011;13725;51.170;4.442;2023-05-31T13:16:41;8.60;;;3.00;;
25922;SDS011;13725;51.170;4.442;2023-05-31T13:19:07;7.55;;;3.03;;
25922;SDS011;13725;51.170;4.442;2023-05-31T13:21:34;6.82;;;2.40;;
25922;SDS011;13725;51.170;4.442;2023-05-31T13:24:06;6.38;;;2.60;;
25922;SDS011;13725;51.170;4.442;2023-05-31T13:26:39;8.45;;;2.42;;
25922;SDS011;13725;51.170;4.442;2023-05-31T13:29:06;9.10;;;3.08;;
25922;SDS011;13725;51.170;4.442;2023-05-31T13:31:32;8.82;;;2.70;;
25922;SDS011;13725;51.170;4.442;2023-05-31T13:33:58;12.48;;;3.30;;
25922;SDS011;13725;51.170;4.442;2023-05-31T13:36:23;9.25;;;2.63;;
25922;SDS011;13725;51.170;4.442;2023-05-31T13:38:49;14.45;;;2.88;;
25922;SDS011;13725;51.170;4.442;2023-05-31T13:41:16;11.20;;;3.50;;
25922;SDS011;13725;51.170;4.442;2023-05-31T13:43:41;8.02;;;2.70;;
25922;SDS011;13725;51.170;4.442;2023-05-31T13:46:09;7.60;;;2.88;;
25922;SDS011;13725;51.170;4.442;2023-05-31T13:48:37;13.25;;;3.38;;
25922;SDS011;13725;51.170;4.442;2023-05-31T13:51:04;15.93;;;3.42;;
25922;SDS011;13725;51.170;4.442;2023-05-31T13:53:30;11.73;;;3.00;;
25922;SDS011;13725;51.170;4.442;2023-05-31T13:55:56;10.45;;;2.83;;
25922;SDS011;13725;51.170;4.442;2023-05-31T13:58:22;5.50;;;2.50;;
25922;SDS011;13725;51.170;4.442;2023-05-31T14:00:48;6.07;;;2.58;;
25922;SDS011;13725;51.170;4.442;2023-05-31T14:03:16;10.52;;;2.80;;
25922;SDS011;13725;51.170;4.442;2023-05-31T14:05:42;7.97;;;2.53;;
25922;SDS011;13725;51.170;4.442;2023-05-31T14:08:10;11.15;;;2.92;;
25922;SDS011;13725;51.170;4.442;2023-05-31T14:10:37;11.45;;;2.90;;
25922;SDS011;13725;51.170;4.442;2023-05-31T14:13:04;9.68;;;2.58;;
25922;SDS011;13725;51.170;4.442;2023-05-31T14:15:30;9.82;;;2.92;;
25922;SDS011;13725;51.170;4.442;2023-05-31T14:17:57;7.82;;;2.70;;
25922;SDS011;13725;51.170;4.442;2023-05-31T14:20:23;12.80;;;2.50;;
25922;SDS011;13725;51.170;4.442;2023-05-31T14:22:49;13.15;;;2.60;;
25922;SDS011;13725;51.170;4.442;2023-05-31T14:25:15;4.57;;;2.17;;
25922;SDS011;13725;51.170;4.442;2023-05-31T14:27:43;11.15;;;2.63;;
25922;SDS011;13725;51.170;4.442;2023-05-31T14:30:09;7.57;;;2.85;;
25922;SDS011;13725;51.170;4.442;2023-05-31T14:32:35;8.77;;;2.55;;
25922;SDS011;13725;51.170;4.442;2023-05-31T14:35:01;6.53;;;2.40;;
25922;SDS011;13725;51.170;4.442;2023-05-31T14:37:27;8.45;;;2.60;;
25922;SDS011;13725;51.170;4.442;2023-05-31T14:39:53;8.73;;;2.33;;
25922;SDS011;13725;51.170;4.442;2023-05-31T14:42:19;12.02;;;2.90;;
25922;SDS011;13725;51.170;4.442;2023-05-31T14:44:46;9.48;;;2.10;;
25922;SDS011;13725;51.170;4.442;2023-05-31T14:47:11;9.80;;;2.92;;
25922;SDS011;13725;51.170;4.442;2023-05-31T14:49:39;6.50;;;3.03;;
25922;SDS011;13725;51.170;4.442;2023-05-31T14:52:05;6.22;;;2.03;;
25922;SDS011;13725;51.170;4.442;2023-05-31T14:54:36;4.65;;;1.92;;
25922;SDS011;13725;51.170;4.442;2023-05-31T14:57:02;6.45;;;2.20;;
25922;SDS011;13725;51.170;4.442;2023-05-31T14:59:29;10.63;;;2.70;;
25922;SDS011;13725;51.170;4.442;2023-05-31T15:01:55;6.22;;;2.63;;
25922;SDS011;13725;51.170;4.442;2023-05-31T15:04:29;6.95;;;2.28;;
25922;SDS011;13725;51.170;4.442;2023-05-31T15:06:55;7.30;;;2.60;;
25922;SDS011;13725;51.170;4.442;2023-05-31T15:09:20;10.13;;;2.83;;
25922;SDS011;13725;51.170;4.442;2023-05-31T15:11:46;5.75;;;2.60;;
25922;SDS011;13725;51.170;4.442;2023-05-31T15:14:12;8.90;;;2.55;;
25922;SDS011;13725;51.170;4.442;2023-05-31T15:16:38;8.95;;;2.58;;
25922;SDS011;13725;51.170;4.442;2023-05-31T15:19:07;9.80;;;3.00;;
25922;SDS011;13725;51.170;4.442;2023-05-31T15:21:33;8.02;;;2.60;;
25922;SDS011;13725;51.170;4.442;2023-05-31T15:23:59;7.30;;;2.75;;